createdAt,value
2022-10-06T00:01:48.678Z,98750.16
2022-10-06T00:06:51.075Z,98753.97
2022-10-06T00:11:52.912Z,98753.38
2022-10-06T00:16:54.976Z,98748.31
2022-10-06T00:21:57.021Z,98750.31
2022-10-06T00:26:59.075Z,98748.69
2022-10-06T00:32:00.923Z,98759.38
2022-10-06T00:37:03.447Z,98757.56
2022-10-06T00:42:05.368Z,98756.75
2022-10-06T00:47:08.203Z,98766.44
2022-10-06T00:52:14.805Z,98752.72
2022-10-06T00:57:17.848Z,98751.91
2022-10-06T01:02:28.809Z,98766.00
2022-10-06T01:07:31.047Z,98756.72
2022-10-06T01:12:34.618Z,98754.47
2022-10-06T01:17:40.030Z,98761.91
2022-10-06T01:22:45.088Z,98762.66
2022-10-06T01:27:53.668Z,98770.91
2022-10-06T01:32:58.952Z,98778.16
2022-10-06T01:38:01.572Z,98774.28
2022-10-06T01:43:05.256Z,98775.47
2022-10-06T01:48:07.295Z,98781.09
2022-10-06T01:53:09.282Z,98784.72
2022-10-06T01:58:12.242Z,98781.47
2022-10-06T02:03:15.193Z,98790.72
2022-10-06T02:08:17.237Z,98801.72
2022-10-06T02:13:19.235Z,98801.91
2022-10-06T02:18:22.456Z,98799.47
2022-10-06T02:23:24.334Z,98806.34
2022-10-06T02:28:26.917Z,98809.34
2022-10-06T02:33:30.514Z,98826.69
2022-10-06T02:38:33.722Z,98829.31
2022-10-06T02:43:37.701Z,98824.25
2022-10-06T02:48:41.213Z,98821.81
2022-10-06T02:53:44.802Z,98834.09
2022-10-06T02:58:48.202Z,98821.00
2022-10-06T03:03:57.011Z,98816.38
2022-10-06T03:08:58.942Z,98818.00
2022-10-06T03:14:01.804Z,98836.34
2022-10-06T03:19:06.123Z,98854.69
2022-10-06T03:24:08.546Z,98862.72
2022-10-06T03:29:12.686Z,98869.16
2022-10-06T03:34:18.726Z,98861.28
2022-10-06T03:39:21.048Z,98868.34
2022-10-06T03:44:24.616Z,98866.72
2022-10-06T03:49:27.294Z,98880.81
2022-10-06T03:54:29.334Z,98887.41
2022-10-06T03:59:34.331Z,98889.59
2022-10-06T04:04:38.622Z,98891.59
2022-10-06T04:09:46.152Z,98908.28
2022-10-06T04:14:48.395Z,98906.69
2022-10-06T04:19:50.324Z,98918.16
2022-10-06T04:24:52.616Z,98919.31
2022-10-06T04:29:54.515Z,98922.13
2022-10-06T04:34:56.545Z,98928.53
2022-10-06T04:40:00.374Z,98922.50
2022-10-06T04:45:05.277Z,98933.97
2022-10-06T04:50:08.728Z,98942.44
2022-10-06T04:55:11.230Z,98931.97
2022-10-06T05:00:25.768Z,98942.25
2022-10-06T05:05:29.080Z,98959.69
2022-10-06T05:10:32.037Z,98975.66
2022-10-06T05:15:34.610Z,98991.47
2022-10-06T05:20:36.823Z,98992.53
2022-10-06T05:25:39.436Z,99003.28
2022-10-06T05:30:41.416Z,99006.22
2022-10-06T05:35:55.735Z,99010.09
2022-10-06T05:41:17.628Z,99024.44
2022-10-06T05:46:24.951Z,99032.13
2022-10-06T05:51:32.066Z,99052.53
2022-10-06T05:56:37.971Z,99046.56
2022-10-06T06:01:41.657Z,99055.44
2022-10-06T06:07:01.373Z,99078.03
2022-10-06T06:12:03.700Z,99080.47
2022-10-06T06:17:12.341Z,99091.75
2022-10-06T06:22:14.512Z,99098.63
2022-10-06T06:27:18.826Z,99111.75
2022-10-06T06:32:20.792Z,99119.59
2022-10-06T06:37:23.710Z,99140.41
2022-10-06T06:42:25.710Z,99195.00
2022-10-06T06:47:35.286Z,99226.00
2022-10-06T06:52:39.661Z,99237.56
2022-10-06T06:57:46.924Z,99263.97
2022-10-06T07:02:56.374Z,99282.06
2022-10-06T07:07:58.388Z,99303.88
2022-10-06T07:13:01.195Z,99321.91
2022-10-06T07:18:21.956Z,99334.69
2022-10-06T07:23:43.238Z,99342.72
2022-10-06T07:28:49.926Z,99351.38
2022-10-06T07:33:53.793Z,99372.16
2022-10-06T07:38:56.293Z,99376.06
2022-10-06T07:43:59.371Z,99388.63
2022-10-06T07:49:04.354Z,99386.50
2022-10-06T07:54:07.039Z,99389.94
2022-10-06T07:59:29.097Z,99395.50
2022-10-06T08:04:30.959Z,99410.19
2022-10-06T08:09:32.763Z,99419.84
2022-10-06T08:14:35.510Z,99431.09
2022-10-06T08:19:37.492Z,99428.97
2022-10-06T08:25:04.224Z,99437.66
2022-10-06T08:30:01.284Z,99445.50
2022-10-06T08:35:03.991Z,99452.03
2022-10-06T08:40:08.151Z,99462.50
2022-10-06T08:45:32.089Z,99461.03
2022-10-06T08:50:50.624Z,99472.81
2022-10-06T08:56:01.175Z,99494.06
2022-10-06T09:01:16.309Z,99473.47
2022-10-06T09:06:49.016Z,99484.56
2022-10-06T09:12:29.446Z,99494.88
2022-10-06T09:17:40.503Z,99501.13
2022-10-06T09:22:44.833Z,99488.16
2022-10-06T09:27:53.417Z,99496.81
2022-10-06T09:33:00.317Z,99497.63
2022-10-06T09:38:08.696Z,99505.78
2022-10-06T09:43:28.171Z,99504.31
2022-10-06T09:48:29.976Z,99500.56
2022-10-06T09:53:35.526Z,99505.13
2022-10-06T09:58:52.727Z,99516.09
2022-10-06T10:04:21.127Z,99517.53
2022-10-06T10:09:29.387Z,99510.97
2022-10-06T10:14:38.724Z,99528.47
2022-10-06T10:19:43.576Z,99522.06
2022-10-06T10:25:36.069Z,99534.84
2022-10-06T10:30:55.830Z,99543.84
2022-10-06T10:35:59.457Z,99541.22
2022-10-06T10:41:20.160Z,99548.56
2022-10-06T10:46:33.031Z,99549.38
2022-10-06T10:51:37.523Z,99553.31
2022-10-06T10:56:39.663Z,99552.81
2022-10-06T11:01:53.573Z,99558.66
2022-10-06T11:07:07.973Z,99560.56
2022-10-06T11:12:56.096Z,99561.06
2022-10-06T11:18:21.411Z,99556.31
2022-10-06T11:23:24.222Z,99554.31
2022-10-06T11:29:02.600Z,99548.50
2022-10-06T11:34:06.687Z,99549.41
2022-10-06T11:39:24.146Z,99551.28
2022-10-06T11:44:39.141Z,99548.13
2022-10-06T11:49:55.903Z,99545.16
2022-10-06T11:55:15.118Z,99546.44
2022-10-06T12:00:17.412Z,99564.34
2022-10-06T12:10:50.284Z,99562.88
2022-10-06T12:21:32.459Z,99563.38
2022-10-06T12:26:43.349Z,99560.44
2022-10-06T12:31:51.233Z,99563.41
2022-10-06T12:37:19.928Z,99549.19
2022-10-06T12:42:27.623Z,99566.09
2022-10-06T12:47:40.772Z,99561.00
2022-10-06T12:52:49.018Z,99557.44
2022-10-06T12:57:52.422Z,99555.16
2022-10-06T13:02:57.840Z,99562.22
2022-10-06T13:08:20.821Z,99565.66
2022-10-06T13:13:25.120Z,99565.03
2022-10-06T13:18:28.754Z,99571.91
2022-10-06T13:23:36.637Z,99574.38
2022-10-06T13:28:44.298Z,99569.69
2022-10-06T13:33:47.463Z,99575.75
2022-10-06T13:38:50.468Z,99574.47
2022-10-06T13:44:14.228Z,99577.72
2022-10-06T13:49:30.682Z,99580.19
2022-10-06T13:54:32.537Z,99584.44
2022-10-06T13:59:38.692Z,99587.53
2022-10-06T14:04:40.679Z,99591.63
2022-10-06T14:09:43.248Z,99594.06
2022-10-06T14:14:48.012Z,99596.06
2022-10-06T14:19:50.178Z,99596.38
2022-10-06T14:24:52.083Z,99593.78
2022-10-06T14:29:55.767Z,99597.38
2022-10-06T14:34:57.786Z,99602.63
2022-10-06T14:40:00.027Z,99600.81
2022-10-06T14:45:02.977Z,99593.13
2022-10-06T14:50:05.663Z,99597.56
2022-10-06T14:55:08.314Z,99601.34
2022-10-06T15:00:10.803Z,99596.59
2022-10-06T15:05:13.839Z,99594.47
2022-10-06T15:10:15.635Z,99604.00
2022-10-06T15:15:17.399Z,99601.09
2022-10-06T15:20:19.164Z,99604.16
2022-10-06T15:25:39.501Z,99615.97
2022-10-06T15:30:41.809Z,99614.84
2022-10-06T15:36:24.489Z,99612.41
2022-10-06T15:41:26.768Z,99619.44
2022-10-06T15:46:35.831Z,99620.13
2022-10-06T15:51:45.006Z,99616.53
2022-10-06T15:56:48.554Z,99615.72
2022-10-06T16:02:03.401Z,99617.84
2022-10-06T16:07:10.958Z,99613.94
2022-10-06T16:12:18.205Z,99609.19
2022-10-06T16:17:20.675Z,99618.34
2022-10-06T16:22:22.626Z,99628.31
2022-10-06T16:27:24.578Z,99624.03
2022-10-06T16:32:26.518Z,99621.56
2022-10-06T16:37:28.383Z,99634.78
2022-10-06T16:42:30.383Z,99645.53
2022-10-06T16:47:32.271Z,99649.41
2022-10-06T16:52:34.464Z,99643.47
2022-10-06T16:57:36.327Z,99654.72
2022-10-06T17:02:38.773Z,99662.84
2022-10-06T17:07:40.938Z,99672.41
2022-10-06T17:12:42.952Z,99666.16
2022-10-06T17:17:45.002Z,99677.91
2022-10-06T17:22:47.008Z,99685.38
2022-10-06T17:27:48.931Z,99676.50
2022-10-06T17:32:50.798Z,99671.75
2022-10-06T17:37:54.202Z,99682.47
2022-10-06T17:42:57.795Z,99681.28
2022-10-06T17:48:00.099Z,99679.13
2022-10-06T17:53:02.043Z,99676.00
2022-10-06T17:58:04.737Z,99678.91
2022-10-06T18:03:07.751Z,99677.88
2022-10-06T18:08:13.021Z,99672.44
2022-10-06T18:13:15.186Z,99678.78
2022-10-06T18:18:16.969Z,99682.66
2022-10-06T18:23:18.863Z,99677.22
2022-10-06T18:28:20.712Z,99676.16
2022-10-06T18:38:45.862Z,99676.69
2022-10-06T18:43:48.228Z,99679.88
2022-10-06T18:48:56.423Z,99689.78
2022-10-06T18:54:03.266Z,99690.44
2022-10-06T18:59:12.386Z,99685.13
2022-10-06T19:04:17.197Z,99683.78
2022-10-06T19:09:21.813Z,99688.19
2022-10-06T19:14:30.024Z,99688.47
2022-10-06T19:19:31.927Z,99692.19
2022-10-06T19:24:39.255Z,99694.25
2022-10-06T19:29:45.930Z,99687.69
2022-10-06T19:34:49.985Z,99695.81
2022-10-06T19:39:51.754Z,99695.94
2022-10-06T19:44:53.513Z,99695.38
2022-10-06T19:50:00.822Z,99693.75
2022-10-06T19:55:05.337Z,99688.53
2022-10-06T20:00:10.440Z,99698.28
2022-10-06T20:05:16.000Z,99700.06
2022-10-06T20:10:17.921Z,99701.75
2022-10-06T20:15:19.932Z,99707.53
2022-10-06T20:20:21.772Z,99700.00
2022-10-06T20:25:23.889Z,99703.03
2022-10-06T20:30:25.676Z,99705.91
2022-10-06T20:35:27.543Z,99704.41
2022-10-06T20:40:43.411Z,99699.47
2022-10-06T20:45:45.193Z,99710.03
2022-10-06T20:50:47.022Z,99705.94
2022-10-06T20:55:52.170Z,99705.25
2022-10-06T21:00:54.069Z,99704.44
2022-10-06T21:05:55.901Z,99705.53
2022-10-06T21:11:02.574Z,99705.13
2022-10-06T21:16:04.754Z,99699.25
2022-10-06T21:21:08.017Z,99697.59
2022-10-06T21:26:12.858Z,99693.38
2022-10-06T21:31:20.060Z,99696.25
2022-10-06T21:36:24.395Z,99683.66
2022-10-06T21:41:31.904Z,99681.47
2022-10-06T21:46:36.669Z,99670.50
2022-10-06T21:51:39.561Z,99679.56
2022-10-06T21:56:41.756Z,99679.28
2022-10-06T22:01:45.582Z,99667.53
2022-10-06T22:06:50.280Z,99673.97
2022-10-06T22:11:52.423Z,99676.84
2022-10-06T22:16:54.333Z,99678.75
2022-10-06T22:21:56.173Z,99670.53
2022-10-06T22:26:58.969Z,99671.78
2022-10-06T22:32:00.811Z,99670.41
2022-10-06T22:37:02.723Z,99662.19
2022-10-06T22:42:04.628Z,99665.09
2022-10-06T22:47:06.562Z,99673.16
2022-10-06T22:52:08.660Z,99655.22
2022-10-06T22:57:10.520Z,99655.38
2022-10-06T23:02:12.259Z,99660.69
2022-10-06T23:07:14.021Z,99655.78
2022-10-06T23:12:15.821Z,99654.94
2022-10-06T23:17:17.651Z,99649.19
2022-10-06T23:22:19.478Z,99641.53
2022-10-06T23:27:21.421Z,99642.34
2022-10-06T23:32:23.334Z,99643.19
2022-10-06T23:37:25.160Z,99645.22
2022-10-06T23:42:27.163Z,99636.59
2022-10-06T23:47:29.156Z,99638.53
2022-10-06T23:52:30.974Z,99646.47
2022-10-06T23:57:32.739Z,99651.22
